Aviation Digital Data Service (ADDS)

Output produced by METARs form (1154 UTC 17 December 2017)
found at http://aviationweather.gov/adds/metars/
 
KSNS 171053Z AUTO 00000KT 10SM CLR 10/M07 A2996 RMK AO2 SLP155 T01001072
KMRY 171054Z AUTO 07006KT 10SM CLR 09/M06 A2996 RMK AO2 SLP158 T00891061 TSNO
KSJC 171053Z AUTO 22006KT 10SM CLR 12/M07 A2999 RMK AO2 SLP154 T01171072
KSFO 171056Z 01009KT 10SM CLR 13/01 A3000 RMK AO2 SLP158 T01330006
KLVK 171053Z AUTO 10SM CLR 12/M08 A3000 RMK AO2 SLP156 T01171083
KMCE 171053Z AUTO 36003KT 10SM CLR 05/M04 A2999 RMK AO2 SLP155 T00501044